Eleusis, Grecia

11:03 AM EEST en Septiembre 21, 2014 (GMT +0300)
Elefsis Air Base | Change Station
CLOSE
Current Station
Aeropuerto
Location: Elefsis,
Altura: 102 ft
Estaciones meteorológicas cercanas

Alt 102 ft 38.06 °N, 23.56 °E | Updated 13 minutes ago

Clear
Despejado
82 ° F
Sensación térmica 83 ° F
N
12
Viento Variable Viento desde SSO

Hoy
Alta -- | Baja -- ° F
--% Posibilidad de precipitaciones
Ayer
Alta -- | Baja -- ° F
Precip. -- pul
7:12 AM 7:24 PM
Creciente menguante, 8% visible
Presión 29.95 pul
Visibilidad -9999.0 Millas
Nubes
Índice de calor 83 ° F
Punto de rocío 61 ° F
Humedad 48%
Precipitaciones 0.00 pul
Espesor de la nieve No disponible.
UV No disponible.
Polen No disponible.
Calidad del aire No disponible.
Flu Activity No disponible.
METAR LGEL 210750Z 20010KT CAVOK 28/16 Q1014

More Conditions Fewer Conditions

Presión 29.95 pul
Visibilidad -9999.0 Millas
Nubes
Índice de calor 83 ° F
Punto de rocío 61 ° F
Humedad 48%
Precipitaciones 0.00 pul
Espesor de la nieve No disponible.
UV No disponible.
Polen No disponible.
Calidad del aire No disponible.
Flu Activity No disponible.
METAR LGEL 210750Z 20010KT CAVOK 28/16 Q1014

More Conditions Fewer Conditions

10-Day Weather Forecast

Almanac

Astronomía

Sep. 21, 2014 Salida Puesta
Hora real 7:12 AM EEST 7:24 PM EEST
Crepúsculo civil 6:46 AM EEST 7:51 PM EEST
Crepúsculo náutico 6:15 AM EEST 8:21 PM EEST
Crepúsculo astronómico 5:43 AM EEST 8:53 PM EEST
Luna 4:30 AM EEST 5:49 PM EEST
Horas de luz 13h 04m
Horas de luz
12h 12m
Tomorrow will be 2m 27s shorter.
Creciente menguante, 8% of the Moon is Illuminated
Hoy
Creciente menguante
Sep 24
Nueva
Oct 1
Cuarto creciente
Oct 8
Luna llena
Oct 15
Cuarto menguante

Extremos de ayer

Máximos del país Bajas del país

Community

WunderPhotos

Upload Photos

1,755,101 ¡fotos cargadas!

Nearby

Calidad del aire

Not available.

Grosos de nieve

Not available.

Actividad de terremotos

Ciudad Distance Mag. Tiempo y dato
No hay informes recientes de la actividad sísmica.
Magnitud mínima muestra es 2,5.

Temperaturas de aguas costeras

Lugar Temperatura
Sin partes meteorológicos de las estaciones

Estaciones meteorológicas cercanas